Date,TemperatureHighF,TemperatureAvgF,TemperatureLowF,DewpointHighF,DewpointAvgF,DewpointLowF,HumidityHigh,HumidityAvg,HumidityLow,PressureMaxIn,PressureMinIn,WindSpeedMaxMPH,WindSpeedAvgMPH,GustSpeedMaxMPH,PrecipitationSumIn
2013-11-1,-200.0,0.0,200.0,-99.9,-99.9,-99.9,48,13,47,29.69,29.27,6,2,20,0.07
2013-11-2,-200.0,0.0,200.0,-99.9,-99.9,-99.9,48,4,48,30.11,29.81,4,1,9,0.08
2013-11-3,50.0,19.1,42.0,39.0,-43.2,-99.9,72,28,59,30.26,30.17,8,1,15,0.00
2013-11-4,53.0,48.4,43.0,43.0,38.9,33.0,71,69,64,30.19,30.00,10,3,23,0.00
2013-11-5,55.0,10.0,50.0,45.0,-73.4,-99.9,69,12,58,30.20,29.83,9,3,21,0.38
2013-11-6,43.0,9.7,33.0,35.0,-66.9,-99.9,75,18,67,30.11,29.67,11,5,20,0.33
2013-11-7,42.0,34.8,27.0,32.0,26.6,17.0,75,72,61,30.19,30.12,5,2,12,0.06
2013-11-8,45.0,40.8,29.0,35.0,31.9,19.0,72,70,64,30.22,29.77,8,3,19,0.00
2013-11-9,51.0,45.1,40.0,40.0,33.5,-99.9,71,66,56,30.02,29.70,13,6,26,0.00
2013-11-10,47.0,41.9,39.0,34.0,30.8,29.0,72,65,51,30.28,30.03,7,3,15,0.00
2013-11-11,43.0,32.7,25.0,34.0,23.2,14.0,74,68,61,30.51,30.02,5,2,12,0.09
2013-11-12,29.0,23.6,19.0,18.0,14.6,12.0,75,68,52,30.67,30.51,7,2,15,0.02
2013-11-13,41.0,29.3,18.0,21.0,16.6,11.0,75,60,39,30.50,30.01,14,5,28,0.00
2013-11-14,46.0,37.5,29.0,31.0,26.6,20.0,72,65,53,30.00,29.83,9,4,20,0.00
2013-11-15,54.0,42.3,31.0,40.0,31.9,19.0,71,67,59,29.89,29.83,8,2,13,0.00
2013-11-16,56.0,0.8,56.0,-99.9,-99.9,-99.9,47,1,47,29.74,29.44,13,8,29,0.05
2013-11-17,44.0,7.3,41.0,36.0,-76.9,-99.9,73,12,66,29.61,29.13,12,4,27,0.92
2013-11-18,40.0,33.6,27.0,32.0,25.6,20.0,76,72,68,30.21,29.62,12,6,27,0.01
2013-11-19,39.0,30.2,21.0,28.0,21.0,11.0,76,68,61,30.33,30.21,6,1,9,0.00
2013-11-20,41.0,37.9,31.0,31.0,28.2,20.0,72,68,62,30.19,30.06,10,3,18,0.00
2013-11-21,43.0,42.1,41.0,33.0,31.3,29.0,68,66,62,30.17,30.11,2,0,6,0.00
2013-11-22,34.0,30.5,26.0,25.0,21.2,14.0,73,68,61,30.43,30.36,6,3,12,0.04
2013-11-23,26.0,17.2,12.0,17.0,5.6,-99.9,70,62,55,30.66,30.35,8,4,18,0.00
2013-11-24,25.0,17.6,9.0,10.0,6.3,3.0,77,62,43,30.65,30.21,12,4,22,0.00
2013-11-25,31.0,26.2,20.0,23.0,16.4,9.0,74,66,59,30.19,29.95,11,5,26,0.00
2013-11-27,26.0,19.0,12.0,16.0,10.7,5.0,76,70,56,30.22,30.15,7,2,13,0.00
2013-11-28,28.0,22.8,16.0,18.0,15.0,9.0,75,72,64,30.46,30.11,6,1,11,0.00
2013-11-29,29.0,21.7,10.0,20.0,13.4,1.0,73,69,63,30.58,30.30,9,1,12,0.00
2013-11-30,42.0,33.2,27.0,32.0,22.9,-99.9,72,68,63,30.30,29.99,11,3,16,0.01